sensor_id;sensor_type;location;lat;lon;timestamp;P1;durP1;ratioP1;P2;durP2;ratioP2
86047;SDS011;76643;42.822;23.352;2024-03-22T16:01:34;4.50;;;2.55;;
86047;SDS011;76643;42.822;23.352;2024-03-22T16:03:59;4.88;;;3.20;;
86047;SDS011;76643;42.822;23.352;2024-03-22T16:06:25;4.00;;;2.88;;
86047;SDS011;76643;42.822;23.352;2024-03-22T16:08:50;4.82;;;2.20;;
86047;SDS011;76643;42.822;23.352;2024-03-22T16:11:16;6.40;;;2.65;;
86047;SDS011;76643;42.822;23.352;2024-03-22T16:13:41;4.28;;;2.22;;
86047;SDS011;76643;42.822;23.352;2024-03-22T16:16:06;6.20;;;3.72;;
86047;SDS011;76643;42.822;23.352;2024-03-22T16:18:32;4.25;;;3.03;;
86047;SDS011;76643;42.822;23.352;2024-03-22T16:20:59;4.30;;;2.70;;
86047;SDS011;76643;42.822;23.352;2024-03-22T16:23:25;6.38;;;3.28;;
86047;SDS011;76643;42.822;23.352;2024-03-22T16:25:50;4.40;;;2.65;;
86047;SDS011;76643;42.822;23.352;2024-03-22T16:28:16;6.57;;;3.67;;
86047;SDS011;76643;42.822;23.352;2024-03-22T16:30:42;4.15;;;2.80;;
86047;SDS011;76643;42.822;23.352;2024-03-22T16:33:08;5.47;;;3.60;;
86047;SDS011;76643;42.822;23.352;2024-03-22T16:35:33;5.50;;;3.80;;
86047;SDS011;76643;42.822;23.352;2024-03-22T16:37:59;7.53;;;3.38;;
86047;SDS011;76643;42.822;23.352;2024-03-22T16:40:24;5.50;;;3.20;;
86047;SDS011;76643;42.822;23.352;2024-03-22T16:42:50;4.63;;;3.17;;
86047;SDS011;76643;42.822;23.352;2024-03-22T16:45:16;5.68;;;4.03;;
86047;SDS011;76643;42.822;23.352;2024-03-22T16:47:42;7.43;;;4.22;;
86047;SDS011;76643;42.822;23.352;2024-03-22T16:50:08;8.80;;;6.13;;
86047;SDS011;76643;42.822;23.352;2024-03-22T16:52:38;13.02;;;9.07;;
86047;SDS011;76643;42.822;23.352;2024-03-22T16:55:04;14.80;;;7.68;;
86047;SDS011;76643;42.822;23.352;2024-03-22T16:57:30;15.07;;;8.20;;
86047;SDS011;76643;42.822;23.352;2024-03-22T16:59:59;12.68;;;6.60;;
86047;SDS011;76643;42.822;23.352;2024-03-22T17:02:25;10.02;;;6.03;;
86047;SDS011;76643;42.822;23.352;2024-03-22T17:04:50;9.88;;;6.43;;
86047;SDS011;76643;42.822;23.352;2024-03-22T17:07:16;9.05;;;6.15;;
86047;SDS011;76643;42.822;23.352;2024-03-22T17:09:41;6.20;;;4.82;;
86047;SDS011;76643;42.822;23.352;2024-03-22T17:12:07;10.77;;;6.22;;
86047;SDS011;76643;42.822;23.352;2024-03-22T17:14:32;11.88;;;7.05;;
86047;SDS011;76643;42.822;23.352;2024-03-22T17:16:58;19.75;;;11.98;;
86047;SDS011;76643;42.822;23.352;2024-03-22T17:19:24;22.67;;;13.90;;
86047;SDS011;76643;42.822;23.352;2024-03-22T17:21:50;26.65;;;18.00;;
86047;SDS011;76643;42.822;23.352;2024-03-22T17:24:15;20.65;;;11.30;;
86047;SDS011;76643;42.822;23.352;2024-03-22T17:26:41;10.88;;;7.35;;
86047;SDS011;76643;42.822;23.352;2024-03-22T17:29:08;12.40;;;7.00;;
86047;SDS011;76643;42.822;23.352;2024-03-22T17:31:35;6.90;;;4.53;;
86047;SDS011;76643;42.822;23.352;2024-03-22T17:34:01;6.50;;;4.20;;
86047;SDS011;76643;42.822;23.352;2024-03-22T17:36:27;4.97;;;3.70;;
86047;SDS011;76643;42.822;23.352;2024-03-22T17:38:52;7.22;;;5.28;;
86047;SDS011;76643;42.822;23.352;2024-03-22T17:41:18;6.82;;;4.97;;
86047;SDS011;76643;42.822;23.352;2024-03-22T17:43:46;7.00;;;5.00;;
86047;SDS011;76643;42.822;23.352;2024-03-22T17:46:14;9.52;;;5.03;;
86047;SDS011;76643;42.822;23.352;2024-03-22T17:48:40;8.00;;;4.80;;
86047;SDS011;76643;42.822;23.352;2024-03-22T17:51:06;6.78;;;3.92;;
86047;SDS011;76643;42.822;23.352;2024-03-22T17:53:31;7.55;;;4.53;;
86047;SDS011;76643;42.822;23.352;2024-03-22T17:55:57;11.20;;;5.85;;
86047;SDS011;76643;42.822;23.352;2024-03-22T17:58:22;10.05;;;6.40;;
86047;SDS011;76643;42.822;23.352;2024-03-22T18:00:47;8.88;;;5.65;;
86047;SDS011;76643;42.822;23.352;2024-03-22T18:03:13;11.40;;;5.68;;
86047;SDS011;76643;42.822;23.352;2024-03-22T18:05:39;6.35;;;5.70;;
86047;SDS011;76643;42.822;23.352;2024-03-22T18:08:04;5.47;;;4.03;;
86047;SDS011;76643;42.822;23.352;2024-03-22T18:10:30;5.43;;;3.67;;
86047;SDS011;76643;42.822;23.352;2024-03-22T18:12:56;6.38;;;4.03;;
86047;SDS011;76643;42.822;23.352;2024-03-22T18:15:25;6.85;;;4.45;;
86047;SDS011;76643;42.822;23.352;2024-03-22T18:17:50;6.05;;;3.35;;
86047;SDS011;76643;42.822;23.352;2024-03-22T18:20:17;7.55;;;4.22;;
86047;SDS011;76643;42.822;23.352;2024-03-22T18:22:45;6.85;;;5.40;;
86047;SDS011;76643;42.822;23.352;2024-03-22T18:25:12;6.45;;;4.82;;
86047;SDS011;76643;42.822;23.352;2024-03-22T18:27:38;7.50;;;4.43;;
86047;SDS011;76643;42.822;23.352;2024-03-22T18:30:04;8.35;;;4.55;;
86047;SDS011;76643;42.822;23.352;2024-03-22T18:32:31;11.02;;;4.53;;
86047;SDS011;76643;42.822;23.352;2024-03-22T18:34:57;6.78;;;6.05;;
86047;SDS011;76643;42.822;23.352;2024-03-22T18:37:22;6.20;;;4.10;;
86047;SDS011;76643;42.822;23.352;2024-03-22T18:39:48;8.63;;;5.50;;
86047;SDS011;76643;42.822;23.352;2024-03-22T18:42:14;7.35;;;5.13;;
86047;SDS011;76643;42.822;23.352;2024-03-22T18:44:39;7.57;;;5.20;;
86047;SDS011;76643;42.822;23.352;2024-03-22T18:47:06;6.35;;;4.35;;
86047;SDS011;76643;42.822;23.352;2024-03-22T18:49:32;8.85;;;4.25;;
86047;SDS011;76643;42.822;23.352;2024-03-22T18:51:58;7.88;;;5.32;;
86047;SDS011;76643;42.822;23.352;2024-03-22T18:54:24;7.35;;;5.10;;
86047;SDS011;76643;42.822;23.352;2024-03-22T18:56:49;6.07;;;4.20;;
86047;SDS011;76643;42.822;23.352;2024-03-22T18:59:15;6.55;;;3.90;;
86047;SDS011;76643;42.822;23.352;2024-03-22T19:01:41;11.27;;;5.93;;
86047;SDS011;76643;42.822;23.352;2024-03-22T19:04:07;11.52;;;8.20;;
86047;SDS011;76643;42.822;23.352;2024-03-22T19:06:34;8.88;;;6.05;;
86047;SDS011;76643;42.822;23.352;2024-03-22T19:08:59;8.35;;;5.60;;
86047;SDS011;76643;42.822;23.352;2024-03-22T19:11:25;11.13;;;6.47;;
86047;SDS011;76643;42.822;23.352;2024-03-22T19:13:51;16.48;;;10.00;;
86047;SDS011;76643;42.822;23.352;2024-03-22T19:16:16;19.27;;;12.10;;
86047;SDS011;76643;42.822;23.352;2024-03-22T19:18:42;18.38;;;10.90;;
86047;SDS011;76643;42.822;23.352;2024-03-22T19:21:07;17.15;;;11.10;;
86047;SDS011;76643;42.822;23.352;2024-03-22T19:23:33;19.20;;;10.70;;
86047;SDS011;76643;42.822;23.352;2024-03-22T19:25:58;15.18;;;10.00;;
86047;SDS011;76643;42.822;23.352;2024-03-22T19:28:25;16.88;;;9.07;;
86047;SDS011;76643;42.822;23.352;2024-03-22T19:30:51;13.82;;;7.90;;
86047;SDS011;76643;42.822;23.352;2024-03-22T19:33:17;63.50;;;29.98;;
86047;SDS011;76643;42.822;23.352;2024-03-22T19:35:43;66.70;;;31.80;;
86047;SDS011;76643;42.822;23.352;2024-03-22T19:38:09;86.45;;;39.95;;
86047;SDS011;76643;42.822;23.352;2024-03-22T19:40:35;52.28;;;25.15;;
86047;SDS011;76643;42.822;23.352;2024-03-22T19:43:02;19.48;;;10.02;;
86047;SDS011;76643;42.822;23.352;2024-03-22T19:45:28;22.15;;;13.55;;
86047;SDS011;76643;42.822;23.352;2024-03-22T19:47:54;27.83;;;13.73;;
86047;SDS011;76643;42.822;23.352;2024-03-22T19:50:19;19.30;;;9.43;;
86047;SDS011;76643;42.822;23.352;2024-03-22T19:52:45;10.73;;;5.70;;
86047;SDS011;76643;42.822;23.352;2024-03-22T19:55:11;12.50;;;6.38;;
86047;SDS011;76643;42.822;23.352;2024-03-22T19:57:36;13.98;;;9.13;;
86047;SDS011;76643;42.822;23.352;2024-03-22T20:00:02;25.17;;;15.35;;
86047;SDS011;76643;42.822;23.352;2024-03-22T20:02:28;27.65;;;14.40;;
86047;SDS011;76643;42.822;23.352;2024-03-22T20:04:54;25.20;;;13.60;;
86047;SDS011;76643;42.822;23.352;2024-03-22T20:07:20;16.77;;;8.98;;
86047;SDS011;76643;42.822;23.352;2024-03-22T20:09:45;11.85;;;7.38;;
86047;SDS011;76643;42.822;23.352;2024-03-22T20:12:11;10.90;;;6.35;;
86047;SDS011;76643;42.822;23.352;2024-03-22T20:14:37;8.48;;;5.30;;
86047;SDS011;76643;42.822;23.352;2024-03-22T20:17:02;9.02;;;5.50;;
86047;SDS011;76643;42.822;23.352;2024-03-22T20:19:28;11.65;;;6.55;;
86047;SDS011;76643;42.822;23.352;2024-03-22T20:21:54;15.15;;;9.93;;
86047;SDS011;76643;42.822;23.352;2024-03-22T20:24:19;12.70;;;8.32;;
86047;SDS011;76643;42.822;23.352;2024-03-22T20:26:45;11.23;;;7.07;;
86047;SDS011;76643;42.822;23.352;2024-03-22T20:29:10;8.50;;;5.97;;
86047;SDS011;76643;42.822;23.352;2024-03-22T20:31:36;9.27;;;5.50;;
86047;SDS011;76643;42.822;23.352;2024-03-22T20:34:07;7.22;;;4.47;;
86047;SDS011;76643;42.822;23.352;2024-03-22T20:36:33;5.57;;;4.45;;
86047;SDS011;76643;42.822;23.352;2024-03-22T20:38:59;7.55;;;4.82;;
